Whale Watcher II — WDB8211 — position and weather

sailwx.info

Track history (hours):
 
Tides and Currents Weather Stations Pressure Air Temp Water Temp Dewpoint Dewpoint Depression Visibility Wind Speed Wind Dir Waves Ship Positions

Whale Watcher II

Owner: Ronald L. Robbins LLC, Cape May, NJ. More information available from US FCC via Universal Licensing System and Coast Guard Vessel Documentation Center.

Last reported at 2015-Mar-29 16:29 UTC. Time now 2015-Mar-29 17:23 UTC.
Position N 29°55' W 090°04'.

Length 22 m.

Type: Towing. MMSI: 367011790.

Date/timePositionNaut miles runAvg speedWind from/ knotsBaromVisibWave heightAir tempDewpointWater temp
2015-Mar-29 16:29N 29°55' W 090°04'0 0.0
2015-Mar-29 15:13N 29°55' W 090°04'0 0.2
2015-Mar-29 14:25N 29°55' W 090°04'0 0.0
2015-Mar-29 13:23N 29°55' W 090°04'0 0.0
2015-Mar-29 12:31N 29°55' W 090°04'2 2.2
2015-Mar-29 11:30N 29°57' W 090°02'4 3.2
2015-Mar-29 10:23N 29°56' W 089°59'3 1.4
2015-Mar-29 08:07N 29°53' W 089°57'8 0.3
2015-Mar-28 02:03N 29°55' W 090°07'2 4.1
2015-Mar-28 01:32N 29°55' W 090°04'1 0.5
2015-Mar-28 00:30N 29°55' W 090°04'0 0.0
2015-Mar-27 23:33N 29°55' W 090°04'1 0.5
2015-Mar-27 22:32N 29°56' W 090°03'2 1.8
2015-Mar-27 21:32N 29°57' W 090°02'2 1.8
2015-Mar-27 20:33N 29°56' W 090°00'0 0.0
2015-Mar-27 18:33N 29°56' W 090°00'0 0.2
2015-Mar-27 17:33N 29°56' W 089°60'0 0.0
2015-Mar-27 16:32N 29°56' W 089°60'0 0.1
2015-Mar-27 15:29N 29°56' W 089°60'2 1.5
2015-Mar-27 14:19N 29°56' W 089°58'2 1.0
2015-Mar-27 12:10N 29°55' W 089°55'7 0.3
2015-Mar-26 10:11N 29°50' W 090°00'6 1.1
2015-Mar-26 04:32N 29°55' W 089°57'5 5.5
2015-Mar-26 03:33N 29°55' W 090°04'0 0.2
2015-Mar-26 02:29N 29°56' W 090°04'0 0.3
2015-Mar-26 01:33N 29°55' W 090°04'0 0.1
2015-Mar-26 00:33N 29°55' W 090°04'2 2.2
2015-Mar-25 23:33N 29°57' W 090°02'1 0.6
2015-Mar-25 22:33N 29°57' W 090°02'0 0.0
2015-Mar-25 21:23N 29°57' W 090°02'0 0.0
2015-Mar-25 20:23N 29°57' W 090°02'  
2015-Mar-23 11:18N 29°55' W 090°06'0 0.0
2015-Mar-23 08:30N 29°55' W 090°06'0 0.0
2015-Mar-23 07:25N 29°55' W 090°06'0 0.0
2015-Mar-23 06:30N 29°55' W 090°06'0 0.0
2015-Mar-23 05:33N 29°55' W 090°06'0 0.0
2015-Mar-23 04:33N 29°55' W 090°06'1 0.9
2015-Mar-23 03:28N 29°55' W 090°05'2 1.8
2015-Mar-23 02:33N 29°56' W 090°04'0 0.2
2015-Mar-23 01:27N 29°56' W 090°03'0 0.2
2015-Mar-23 00:30N 29°55' W 090°04'0 0.0
2015-Mar-22 23:28N 29°55' W 090°04'0 0.0
2015-Mar-22 22:17N 29°55' W 090°04'0 0.0
2015-Mar-22 21:32N 29°55' W 090°04'0 0.1
2015-Mar-22 20:30N 29°56' W 090°04'0 0.4
2015-Mar-22 19:33N 29°56' W 090°03'1 0.9
2015-Mar-22 18:33N 29°57' W 090°03'2 1.9
2015-Mar-22 17:33N 29°57' W 090°01'2 1.8
2015-Mar-22 16:29N 29°56' W 089°59'0 0.0
2015-Mar-22 15:31N 29°56' W 089°59'0 0.4
2015-Mar-22 14:32N 29°56' W 089°59'0 0.0
2015-Mar-22 13:33N 29°56' W 089°59'0 0.1
2015-Mar-22 12:26N 29°56' W 089°59'0 0.1
2015-Mar-22 11:32N 29°56' W 089°59'0 0.0
2015-Mar-22 10:32N 29°56' W 089°59'0 0.0
2015-Mar-22 09:14N 29°56' W 089°59'4 0.2
2015-Mar-21 09:31N 29°56' W 090°03'0 0.0
2015-Mar-21 08:22N 29°56' W 090°03'0 0.0
2015-Mar-21 07:31N 29°56' W 090°03'0 0.0
2015-Mar-21 06:32N 29°56' W 090°03'0 0.0
2015-Mar-21 05:31N 29°56' W 090°03'0 0.0
2015-Mar-21 04:32N 29°56' W 090°03'0 0.0
2015-Mar-21 03:29N 29°56' W 090°03'0 0.5
2015-Mar-21 02:33N 29°56' W 090°04'0 0.2
2015-Mar-21 01:32N 29°56' W 090°03'0 0.4
2015-Mar-21 00:33N 29°55' W 090°04'0 0.2
2015-Mar-20 23:32N 29°55' W 090°04'4 3.9
2015-Mar-20 22:31N 29°55' W 090°08'0 0.2
2015-Mar-20 21:33N 29°55' W 090°08'4 3.8
2015-Mar-20 20:31N 29°55' W 090°04'0 0.0
2015-Mar-20 06:16N 29°55' W 090°04'0 0.0
2015-Mar-20 05:15N 29°55' W 090°04'0 0.0
2015-Mar-20 04:29N 29°55' W 090°04'0 0.0
2015-Mar-20 02:22N 29°55' W 090°04'0 0.0
2015-Mar-20 01:13N 29°55' W 090°04'0 0.0
2015-Mar-20 00:16N 29°55' W 090°04'0 0.0
2015-Mar-19 23:27N 29°55' W 090°04'0 0.0
2015-Mar-19 22:24N 29°55' W 090°04'0 0.0
2015-Mar-19 21:32N 29°55' W 090°04'0 0.0
2015-Mar-19 20:33N 29°55' W 090°04'4 3.8
2015-Mar-19 19:28N 29°55' W 090°08'  
Track history (hours):
 
Tides and Currents Weather Stations Pressure Air Temp Water Temp Dewpoint Dewpoint Depression Visibility Wind Speed Wind Dir Waves Ship Positions

Whale Watcher II

Owner: Ronald L. Robbins LLC, Cape May, NJ. More information available from US FCC via Universal Licensing System and Coast Guard Vessel Documentation Center.

Last reported at 2015-Mar-29 16:29 UTC. Time now 2015-Mar-29 17:23 UTC.
Position N 29°55' W 090°04'.

Length 22 m.

Type: Towing. MMSI: 367011790.

Date/timePositionNaut miles runAvg speedWind from/ knotsBaromVisibWave heightAir tempDewpointWater temp
2015-Mar-29 16:29N 29°55' W 090°04'0 0.0
2015-Mar-29 15:13N 29°55' W 090°04'0 0.2
2015-Mar-29 14:25N 29°55' W 090°04'0 0.0
2015-Mar-29 13:23N 29°55' W 090°04'0 0.0
2015-Mar-29 12:31N 29°55' W 090°04'2 2.2
2015-Mar-29 11:30N 29°57' W 090°02'4 3.2
2015-Mar-29 10:23N 29°56' W 089°59'3 1.4
2015-Mar-29 08:07N 29°53' W 089°57'8 0.3
2015-Mar-28 02:03N 29°55' W 090°07'2 4.1
2015-Mar-28 01:32N 29°55' W 090°04'1 0.5
2015-Mar-28 00:30N 29°55' W 090°04'0 0.0
2015-Mar-27 23:33N 29°55' W 090°04'1 0.5
2015-Mar-27 22:32N 29°56' W 090°03'2 1.8
2015-Mar-27 21:32N 29°57' W 090°02'2 1.8
2015-Mar-27 20:33N 29°56' W 090°00'0 0.0
2015-Mar-27 18:33N 29°56' W 090°00'0 0.2
2015-Mar-27 17:33N 29°56' W 089°60'0 0.0
2015-Mar-27 16:32N 29°56' W 089°60'0 0.1
2015-Mar-27 15:29N 29°56' W 089°60'2 1.5
2015-Mar-27 14:19N 29°56' W 089°58'2 1.0
2015-Mar-27 12:10N 29°55' W 089°55'7 0.3
2015-Mar-26 10:11N 29°50' W 090°00'6 1.1
2015-Mar-26 04:32N 29°55' W 089°57'5 5.5
2015-Mar-26 03:33N 29°55' W 090°04'0 0.2
2015-Mar-26 02:29N 29°56' W 090°04'0 0.3
2015-Mar-26 01:33N 29°55' W 090°04'0 0.1
2015-Mar-26 00:33N 29°55' W 090°04'2 2.2
2015-Mar-25 23:33N 29°57' W 090°02'1 0.6
2015-Mar-25 22:33N 29°57' W 090°02'0 0.0
2015-Mar-25 21:23N 29°57' W 090°02'0 0.0
2015-Mar-25 20:23N 29°57' W 090°02'  
2015-Mar-23 11:18N 29°55' W 090°06'0 0.0
2015-Mar-23 08:30N 29°55' W 090°06'0 0.0
2015-Mar-23 07:25N 29°55' W 090°06'0 0.0
2015-Mar-23 06:30N 29°55' W 090°06'0 0.0
2015-Mar-23 05:33N 29°55' W 090°06'0 0.0
2015-Mar-23 04:33N 29°55' W 090°06'1 0.9
2015-Mar-23 03:28N 29°55' W 090°05'2 1.8
2015-Mar-23 02:33N 29°56' W 090°04'0 0.2
2015-Mar-23 01:27N 29°56' W 090°03'0 0.2
2015-Mar-23 00:30N 29°55' W 090°04'0 0.0
2015-Mar-22 23:28N 29°55' W 090°04'0 0.0
2015-Mar-22 22:17N 29°55' W 090°04'0 0.0
2015-Mar-22 21:32N 29°55' W 090°04'0 0.1
2015-Mar-22 20:30N 29°56' W 090°04'0 0.4
2015-Mar-22 19:33N 29°56' W 090°03'1 0.9
2015-Mar-22 18:33N 29°57' W 090°03'2 1.9
2015-Mar-22 17:33N 29°57' W 090°01'2 1.8
2015-Mar-22 16:29N 29°56' W 089°59'0 0.0
2015-Mar-22 15:31N 29°56' W 089°59'0 0.4
2015-Mar-22 14:32N 29°56' W 089°59'0 0.0
2015-Mar-22 13:33N 29°56' W 089°59'0 0.1
2015-Mar-22 12:26N 29°56' W 089°59'0 0.1
2015-Mar-22 11:32N 29°56' W 089°59'0 0.0
2015-Mar-22 10:32N 29°56' W 089°59'0 0.0
2015-Mar-22 09:14N 29°56' W 089°59'4 0.2
2015-Mar-21 09:31N 29°56' W 090°03'0 0.0
2015-Mar-21 08:22N 29°56' W 090°03'0 0.0
2015-Mar-21 07:31N 29°56' W 090°03'0 0.0
2015-Mar-21 06:32N 29°56' W 090°03'0 0.0
2015-Mar-21 05:31N 29°56' W 090°03'0 0.0
2015-Mar-21 04:32N 29°56' W 090°03'0 0.0
2015-Mar-21 03:29N 29°56' W 090°03'0 0.5
2015-Mar-21 02:33N 29°56' W 090°04'0 0.2
2015-Mar-21 01:32N 29°56' W 090°03'0 0.4
2015-Mar-21 00:33N 29°55' W 090°04'0 0.2
2015-Mar-20 23:32N 29°55' W 090°04'4 3.9
2015-Mar-20 22:31N 29°55' W 090°08'0 0.2
2015-Mar-20 21:33N 29°55' W 090°08'4 3.8
2015-Mar-20 20:31N 29°55' W 090°04'0 0.0
2015-Mar-20 06:16N 29°55' W 090°04'0 0.0
2015-Mar-20 05:15N 29°55' W 090°04'0 0.0
2015-Mar-20 04:29N 29°55' W 090°04'0 0.0
2015-Mar-20 02:22N 29°55' W 090°04'0 0.0
2015-Mar-20 01:13N 29°55' W 090°04'0 0.0
2015-Mar-20 00:16N 29°55' W 090°04'0 0.0
2015-Mar-19 23:27N 29°55' W 090°04'0 0.0
2015-Mar-19 22:24N 29°55' W 090°04'0 0.0
2015-Mar-19 21:32N 29°55' W 090°04'0 0.0
2015-Mar-19 20:33N 29°55' W 090°04'4 3.8
2015-Mar-19 19:28N 29°55' W 090°08'  

Dump ship's entire track history